Hot Springs, Ingalls Field (KHSP)

NameIngalls Field
CityHot Springs
CountryUnited States
ICAOKHSP
IATA
Altitude1156 m
CoordinatesGoogle Map
Live Air TrafficLiveATC.net
METARKHSP 251655Z AUTO 00000KT 10SM SCT050 OVC065 14/01 A2999 RMK AO2 T01350008
2019-03-25 16:55:00 Wind: North (0°) 0 m/s - Visibility: 16093.4 m - Temperature: 14 °C - Dew point: 1 °C - Humidity: 41.4% - Pressure: 1015.58 hPa

Sorry, no flights used the airport in this database.